createdAt,value
2022-08-22T00:02:55.896Z,6.80
2022-08-22T00:03:11.648Z,7.20
2022-08-22T00:03:17.616Z,9.07
2022-08-22T00:05:45.530Z,6.93
2022-08-22T00:08:12.097Z,7.90
2022-08-22T00:10:38.600Z,8.27
2022-08-22T00:13:05.211Z,7.27
2022-08-22T00:15:43.060Z,8.93
2022-08-22T00:18:10.405Z,7.93
2022-08-22T00:20:36.970Z,6.70
2022-08-22T00:23:03.540Z,7.33
2022-08-22T00:25:30.154Z,7.53
2022-08-22T00:27:56.818Z,7.07
2022-08-22T00:30:23.375Z,6.67
2022-08-22T00:32:49.959Z,7.17
2022-08-22T00:35:16.559Z,6.97
2022-08-22T00:37:43.115Z,6.37
2022-08-22T00:40:09.687Z,8.37
2022-08-22T00:42:36.385Z,6.77
2022-08-22T00:45:02.971Z,9.10
2022-08-22T00:47:29.577Z,7.43
2022-08-22T00:49:56.167Z,7.93
2022-08-22T00:52:22.747Z,7.43
2022-08-22T00:54:49.315Z,6.23
2022-08-22T00:57:15.894Z,7.43
2022-08-22T00:59:42.453Z,8.77
2022-08-22T01:02:09.088Z,8.57
2022-08-22T01:04:35.654Z,5.57
2022-08-22T01:07:02.257Z,5.17
2022-08-22T01:09:28.834Z,5.83
2022-08-22T01:11:55.344Z,6.20
2022-08-22T01:14:35.095Z,8.83
2022-08-22T01:17:01.812Z,6.00
2022-08-22T01:19:28.403Z,6.50
2022-08-22T01:21:54.904Z,7.50
2022-08-22T01:24:21.463Z,7.83
2022-08-22T01:26:50.637Z,7.23
2022-08-22T01:29:17.489Z,6.30
2022-08-22T01:31:44.474Z,5.40
2022-08-22T01:34:12.791Z,6.27
2022-08-22T01:36:39.738Z,5.40
2022-08-22T01:39:06.311Z,7.83
2022-08-22T01:41:32.880Z,8.47
2022-08-22T01:44:01.065Z,8.00
2022-08-22T01:46:27.862Z,8.00
2022-08-22T01:48:54.435Z,7.13
2022-08-22T01:51:20.998Z,5.53
2022-08-22T01:53:47.689Z,6.73
2022-08-22T01:56:14.279Z,7.80
2022-08-22T01:58:40.871Z,5.87
2022-08-22T02:01:07.481Z,4.60
2022-08-22T02:03:34.007Z,5.80
2022-08-22T02:06:00.528Z,6.23
2022-08-22T02:08:27.030Z,5.53
2022-08-22T02:10:53.639Z,6.43
2022-08-22T02:13:22.732Z,8.10
2022-08-22T02:15:49.281Z,5.13
2022-08-22T02:18:15.833Z,5.90
2022-08-22T02:20:42.425Z,4.63
2022-08-22T02:23:09.040Z,6.43
2022-08-22T02:25:35.544Z,6.87
2022-08-22T02:28:02.286Z,4.10
2022-08-22T02:30:28.841Z,6.10
2022-08-22T02:32:55.399Z,4.90
2022-08-22T02:35:22.041Z,5.80
2022-08-22T02:37:48.538Z,6.57
2022-08-22T02:40:15.169Z,5.77
2022-08-22T02:42:41.740Z,4.70
2022-08-22T02:45:08.253Z,5.53
2022-08-22T02:47:34.813Z,5.23
2022-08-22T02:50:01.383Z,6.63
2022-08-22T02:52:28.242Z,4.87
2022-08-22T02:54:54.798Z,5.27
2022-08-22T02:57:21.359Z,5.27
2022-08-22T02:59:47.908Z,5.67
2022-08-22T03:02:14.470Z,6.43
2022-08-22T03:04:40.978Z,4.90
2022-08-22T03:07:07.575Z,5.60
2022-08-22T03:09:34.110Z,5.00
2022-08-22T03:12:00.671Z,6.00
2022-08-22T03:14:27.222Z,4.63
2022-08-22T03:16:53.733Z,5.47
2022-08-22T03:19:20.261Z,5.40
2022-08-22T03:21:46.829Z,5.50
2022-08-22T03:24:13.340Z,6.57
2022-08-22T03:26:39.901Z,6.47
2022-08-22T03:29:06.471Z,7.37
2022-08-22T03:31:33.046Z,6.10
2022-08-22T03:33:59.637Z,9.03
2022-08-22T03:36:26.193Z,6.90
2022-08-22T03:38:52.818Z,5.77
2022-08-22T03:41:19.379Z,5.23
2022-08-22T03:43:45.940Z,5.27
2022-08-22T03:46:12.471Z,6.30
2022-08-22T03:48:39.091Z,5.63
2022-08-22T03:51:05.629Z,6.63
2022-08-22T03:53:32.133Z,5.50
2022-08-22T03:55:58.697Z,6.90
2022-08-22T03:58:28.234Z,8.13
2022-08-22T04:00:56.726Z,6.10
2022-08-22T04:03:23.425Z,6.43
2022-08-22T04:05:53.328Z,6.17
2022-08-22T04:08:24.271Z,5.20
2022-08-22T04:10:52.691Z,5.27
2022-08-22T04:13:19.277Z,5.17
2022-08-22T04:15:51.430Z,5.03
2022-08-22T04:18:18.094Z,6.17
2022-08-22T04:20:45.066Z,6.07
2022-08-22T04:23:11.626Z,6.93
2022-08-22T04:25:38.231Z,6.13
2022-08-22T04:28:04.746Z,5.60
2022-08-22T04:30:31.301Z,5.43
2022-08-22T04:32:57.914Z,5.00
2022-08-22T04:35:24.478Z,6.33
2022-08-22T04:37:50.982Z,5.93
2022-08-22T04:40:17.614Z,7.87
2022-08-22T04:42:44.217Z,5.33
2022-08-22T04:45:10.773Z,7.27
2022-08-22T04:47:37.329Z,5.17
2022-08-22T04:50:03.903Z,7.67
2022-08-22T04:52:30.482Z,6.73
2022-08-22T04:54:57.062Z,5.43
2022-08-22T04:57:23.632Z,5.40
2022-08-22T04:59:50.170Z,5.30
2022-08-22T05:02:17.677Z,5.93
2022-08-22T05:04:44.182Z,6.40
2022-08-22T05:07:10.779Z,5.87
2022-08-22T05:09:37.329Z,7.93
2022-08-22T05:12:03.834Z,7.63
2022-08-22T05:14:30.406Z,6.10
2022-08-22T05:16:56.970Z,6.30
2022-08-22T05:19:31.122Z,6.93
2022-08-22T05:21:58.538Z,8.57
2022-08-22T05:24:27.906Z,6.13
2022-08-22T05:26:54.749Z,9.07
2022-08-22T05:29:21.507Z,6.33
2022-08-22T05:31:48.078Z,9.47
2022-08-22T05:34:14.636Z,5.77
2022-08-22T05:36:41.191Z,5.60
2022-08-22T05:39:07.751Z,8.77
2022-08-22T05:41:34.257Z,6.70
2022-08-22T05:44:00.830Z,5.57
2022-08-22T05:46:27.866Z,7.47
2022-08-22T05:48:54.374Z,7.20
2022-08-22T05:51:20.891Z,6.73
2022-08-22T05:53:47.429Z,5.70
2022-08-22T05:56:13.952Z,6.70
2022-08-22T05:58:40.506Z,5.63
2022-08-22T06:01:07.070Z,5.37
2022-08-22T06:03:33.659Z,4.63
2022-08-22T06:06:00.210Z,5.97
2022-08-22T06:08:26.766Z,6.57
2022-08-22T06:10:53.389Z,4.63
2022-08-22T06:13:24.444Z,4.50
2022-08-22T06:15:51.385Z,4.57
2022-08-22T06:18:18.001Z,3.83
2022-08-22T06:20:44.568Z,6.23
2022-08-22T06:23:11.112Z,5.90
2022-08-22T06:25:37.614Z,5.07
2022-08-22T06:28:04.176Z,5.00
2022-08-22T06:30:30.717Z,4.80
2022-08-22T06:32:59.798Z,4.83
2022-08-22T06:35:26.931Z,5.47
2022-08-22T06:37:54.798Z,5.00
2022-08-22T06:40:21.403Z,4.17
2022-08-22T06:42:47.998Z,4.53
2022-08-22T06:45:14.550Z,5.60
2022-08-22T06:47:41.109Z,4.30
2022-08-22T06:50:13.658Z,4.70
2022-08-22T06:52:40.626Z,7.80
2022-08-22T06:55:07.197Z,6.63
2022-08-22T06:57:33.758Z,6.53
2022-08-22T07:00:00.283Z,3.97
2022-08-22T07:02:26.815Z,5.30
2022-08-22T07:04:53.362Z,4.13
2022-08-22T07:07:19.886Z,5.43
2022-08-22T07:09:46.414Z,3.67
2022-08-22T07:12:12.986Z,5.00
2022-08-22T07:14:39.565Z,5.93
2022-08-22T07:17:06.125Z,6.93
2022-08-22T07:19:32.716Z,4.53
2022-08-22T07:21:59.248Z,7.47
2022-08-22T07:24:25.828Z,4.77
2022-08-22T07:26:52.344Z,5.17
2022-08-22T07:29:18.923Z,5.73
2022-08-22T07:31:45.931Z,5.43
2022-08-22T07:34:12.490Z,7.00
2022-08-22T07:36:39.055Z,4.50
2022-08-22T07:39:05.649Z,7.67
2022-08-22T07:41:37.653Z,5.17
2022-08-22T07:44:04.208Z,5.53
2022-08-22T07:46:30.772Z,4.53
2022-08-22T07:49:09.146Z,6.53
2022-08-22T07:51:36.270Z,8.03
2022-08-22T07:54:02.796Z,5.37
2022-08-22T07:56:29.374Z,13.30
2022-08-22T07:58:55.993Z,5.07
2022-08-22T08:01:22.594Z,9.53
2022-08-22T08:03:49.189Z,6.63
2022-08-22T08:06:15.738Z,6.53
2022-08-22T08:08:42.297Z,7.57
2022-08-22T08:11:08.910Z,4.47
2022-08-22T08:13:35.480Z,6.13
2022-08-22T08:16:02.041Z,4.73
2022-08-22T08:18:28.788Z,3.90
2022-08-22T08:20:55.356Z,5.17
2022-08-22T08:23:22.247Z,5.40
2022-08-22T08:25:53.831Z,5.17
2022-08-22T08:28:20.453Z,4.40
2022-08-22T08:30:48.166Z,4.73
2022-08-22T08:33:24.803Z,5.83
2022-08-22T08:36:02.794Z,4.97
2022-08-22T08:38:30.227Z,6.70
2022-08-22T08:40:56.750Z,6.13
2022-08-22T08:43:23.354Z,7.43
2022-08-22T08:45:49.954Z,3.77
2022-08-22T08:48:16.462Z,4.90
2022-08-22T08:50:43.297Z,4.60
2022-08-22T08:53:10.024Z,4.90
2022-08-22T08:55:37.158Z,3.20
2022-08-22T08:58:07.015Z,6.47
2022-08-22T09:00:33.725Z,5.10
2022-08-22T09:03:00.327Z,3.80
2022-08-22T09:05:33.417Z,4.17
2022-08-22T09:08:00.158Z,6.13
2022-08-22T09:10:29.446Z,4.13
2022-08-22T09:13:11.358Z,3.33
2022-08-22T09:15:39.265Z,4.93
2022-08-22T09:18:05.783Z,4.03
2022-08-22T09:20:33.109Z,4.17
2022-08-22T09:22:59.662Z,5.80
2022-08-22T09:25:28.692Z,3.73
2022-08-22T09:28:05.255Z,4.87
2022-08-22T09:30:31.892Z,4.07
2022-08-22T09:33:00.934Z,4.77
2022-08-22T09:35:27.528Z,3.83
2022-08-22T09:37:54.115Z,5.43
2022-08-22T09:42:51.965Z,4.67
2022-08-22T09:45:18.499Z,5.27
2022-08-22T09:47:45.069Z,2.83
2022-08-22T09:50:11.582Z,2.77
2022-08-22T09:52:38.118Z,2.83
2022-08-22T09:55:07.973Z,3.23
2022-08-22T09:57:35.278Z,3.47
2022-08-22T10:00:02.222Z,2.10
2022-08-22T10:02:29.157Z,2.47
2022-08-22T10:04:56.701Z,1.73
2022-08-22T10:07:24.859Z,1.93
2022-08-22T10:09:53.587Z,2.47
2022-08-22T10:12:24.765Z,2.27
2022-08-22T10:14:51.593Z,2.00
2022-08-22T10:17:21.592Z,1.93
2022-08-22T10:19:48.597Z,3.07
2022-08-22T10:22:15.300Z,2.57
2022-08-22T10:24:43.964Z,4.07
2022-08-22T10:27:10.777Z,3.37
2022-08-22T10:29:37.281Z,3.03
2022-08-22T10:32:07.724Z,2.17
2022-08-22T10:34:41.169Z,2.83
2022-08-22T10:37:08.786Z,2.13
2022-08-22T10:39:36.905Z,3.60
2022-08-22T10:42:03.438Z,2.67
2022-08-22T10:44:30.056Z,3.53
2022-08-22T10:46:57.170Z,2.07
2022-08-22T10:49:28.314Z,3.17
2022-08-22T10:51:55.829Z,4.67
2022-08-22T10:54:24.996Z,2.37
2022-08-22T10:56:51.609Z,3.03
2022-08-22T10:59:19.089Z,2.20
2022-08-22T11:01:49.395Z,2.83
2022-08-22T11:04:17.568Z,3.97
2022-08-22T11:06:44.845Z,2.23
2022-08-22T11:09:12.410Z,2.70
2022-08-22T11:11:38.940Z,2.67
2022-08-22T11:14:05.490Z,2.07
2022-08-22T11:16:31.990Z,2.40
2022-08-22T11:19:14.944Z,2.03
2022-08-22T11:21:42.313Z,2.23
2022-08-22T11:24:08.850Z,1.97
2022-08-22T11:26:47.632Z,2.57
2022-08-22T11:29:15.062Z,2.50
2022-08-22T11:31:47.272Z,2.83
2022-08-22T11:34:20.597Z,1.67
2022-08-22T11:36:47.214Z,2.13
2022-08-22T11:39:18.292Z,3.97
2022-08-22T11:41:45.343Z,1.93
2022-08-22T11:44:18.844Z,4.70
2022-08-22T11:46:45.418Z,2.70
2022-08-22T11:49:12.711Z,5.33
2022-08-22T11:51:39.316Z,3.63
2022-08-22T11:54:05.822Z,1.80
2022-08-22T11:56:32.486Z,3.67
2022-08-22T11:59:00.214Z,1.83
2022-08-22T12:01:27.545Z,1.80
2022-08-22T12:04:00.910Z,2.63
2022-08-22T12:06:30.053Z,1.90
2022-08-22T12:08:56.658Z,2.10
2022-08-22T12:11:23.221Z,2.73
2022-08-22T12:13:49.762Z,1.97
2022-08-22T12:16:16.356Z,2.37
2022-08-22T12:18:42.930Z,2.30
2022-08-22T12:21:11.576Z,2.27
2022-08-22T12:23:49.404Z,2.30
2022-08-22T12:26:16.850Z,2.07
2022-08-22T12:28:43.382Z,2.07
2022-08-22T12:31:09.939Z,2.40
2022-08-22T12:33:36.450Z,2.77
2022-08-22T12:36:02.973Z,1.90
2022-08-22T12:38:35.975Z,2.33
2022-08-22T12:41:08.183Z,2.50
2022-08-22T12:43:42.378Z,3.20
2022-08-22T12:46:13.090Z,5.43
2022-08-22T12:48:40.179Z,4.60
2022-08-22T12:51:17.409Z,3.37
2022-08-22T12:53:44.834Z,3.57
2022-08-22T12:56:11.501Z,3.50
2022-08-22T12:58:38.061Z,3.53
2022-08-22T13:01:04.851Z,3.17
2022-08-22T13:03:32.932Z,3.13
2022-08-22T13:06:00.739Z,3.37
2022-08-22T13:08:27.372Z,3.50
2022-08-22T13:10:55.787Z,3.10
2022-08-22T13:13:29.476Z,3.60
2022-08-22T13:15:58.362Z,3.47
2022-08-22T13:18:29.855Z,2.93
2022-08-22T13:20:57.541Z,4.20
2022-08-22T13:23:24.639Z,2.47
2022-08-22T13:25:52.129Z,2.57
2022-08-22T13:28:18.750Z,3.50
2022-08-22T13:30:45.244Z,2.50
2022-08-22T13:33:14.811Z,2.67
2022-08-22T13:35:50.573Z,4.70
2022-08-22T13:38:21.021Z,4.10
2022-08-22T13:40:53.034Z,2.73
2022-08-22T13:43:20.236Z,3.43
2022-08-22T13:45:46.905Z,2.70
2022-08-22T13:48:13.593Z,4.23
2022-08-22T13:50:53.298Z,2.70
2022-08-22T13:53:20.250Z,3.70
2022-08-22T13:55:49.233Z,3.70
2022-08-22T13:58:15.893Z,3.70
2022-08-22T14:00:48.701Z,3.07
2022-08-22T14:03:23.952Z,3.43
2022-08-22T14:05:53.259Z,3.13
2022-08-22T14:08:19.848Z,4.80
2022-08-22T14:10:46.431Z,2.63
2022-08-22T14:13:17.078Z,2.83
2022-08-22T14:15:45.374Z,2.90
2022-08-22T14:18:12.744Z,3.47
2022-08-22T14:20:39.248Z,3.03
2022-08-22T14:23:07.107Z,3.30
2022-08-22T14:25:33.737Z,3.63
2022-08-22T14:28:00.888Z,3.00
2022-08-22T14:30:27.735Z,2.83
2022-08-22T14:32:54.237Z,2.73
2022-08-22T14:35:23.305Z,5.13
2022-08-22T14:38:00.394Z,4.67
2022-08-22T14:40:29.447Z,3.27
2022-08-22T14:42:55.992Z,6.77
2022-08-22T14:45:22.518Z,2.90
2022-08-22T14:48:14.557Z,2.60
2022-08-22T14:50:36.740Z,3.27
2022-08-22T14:53:03.302Z,3.10
2022-08-22T14:55:31.174Z,3.10
2022-08-22T14:57:57.858Z,2.43
2022-08-22T15:00:24.572Z,2.50
2022-08-22T15:02:55.234Z,2.80
2022-08-22T15:05:21.781Z,2.90
2022-08-22T15:07:48.586Z,2.70
2022-08-22T15:10:16.147Z,2.87
2022-08-22T15:12:47.313Z,2.70
2022-08-22T15:15:15.286Z,3.00
2022-08-22T15:17:44.450Z,2.50
2022-08-22T15:20:11.228Z,3.07
2022-08-22T15:22:38.304Z,2.27
2022-08-22T15:25:04.872Z,2.37
2022-08-22T15:27:31.673Z,2.43
2022-08-22T15:29:58.175Z,2.77
2022-08-22T15:32:26.638Z,2.57
2022-08-22T15:34:53.345Z,2.43
2022-08-22T15:37:20.061Z,2.40
2022-08-22T15:39:46.865Z,3.80
2022-08-22T15:42:13.518Z,2.43
2022-08-22T15:44:40.074Z,2.80
2022-08-22T15:47:16.183Z,2.17
2022-08-22T15:49:50.949Z,2.03
2022-08-22T15:52:17.484Z,2.30
2022-08-22T15:54:46.972Z,1.70
2022-08-22T15:57:17.863Z,2.57
2022-08-22T15:59:47.988Z,4.60
2022-08-22T16:02:20.918Z,3.63
2022-08-22T16:04:48.261Z,1.57
2022-08-22T16:07:14.752Z,1.80
2022-08-22T16:09:42.675Z,2.33
2022-08-22T16:12:10.910Z,1.70
2022-08-22T16:14:37.461Z,2.13
2022-08-22T16:17:03.992Z,3.47
2022-08-22T16:19:30.530Z,1.60
2022-08-22T16:21:57.081Z,2.20
2022-08-22T16:24:23.669Z,2.80
2022-08-22T16:26:50.223Z,2.40
2022-08-22T16:29:18.291Z,2.40
2022-08-22T16:31:44.958Z,2.90
2022-08-22T16:34:11.540Z,2.20
2022-08-22T16:36:38.101Z,3.13
2022-08-22T16:39:04.635Z,5.10
2022-08-22T16:41:31.157Z,2.80
2022-08-22T16:43:57.654Z,3.13
2022-08-22T16:46:24.202Z,2.57
2022-08-22T16:48:53.305Z,2.77
2022-08-22T16:51:19.812Z,3.60
2022-08-22T16:53:46.351Z,4.57
2022-08-22T16:56:12.898Z,2.57
2022-08-22T16:58:56.514Z,3.03
2022-08-22T17:01:25.571Z,2.70
2022-08-22T17:03:52.161Z,3.20
2022-08-22T17:06:18.677Z,2.33
2022-08-22T17:08:45.379Z,2.63
2022-08-22T17:11:11.935Z,2.47
2022-08-22T17:13:38.500Z,3.77
2022-08-22T17:16:05.090Z,4.87
2022-08-22T17:18:31.645Z,3.53
2022-08-22T17:20:58.200Z,2.13
2022-08-22T17:23:24.726Z,3.03
2022-08-22T17:25:51.303Z,3.93
2022-08-22T17:28:17.853Z,3.50
2022-08-22T17:30:44.417Z,3.47
2022-08-22T17:33:11.010Z,2.83
2022-08-22T17:35:37.584Z,6.50
2022-08-22T17:38:04.154Z,4.33
2022-08-22T17:40:30.940Z,3.70
2022-08-22T17:42:57.539Z,2.90
2022-08-22T17:45:27.767Z,3.93
2022-08-22T17:47:54.801Z,3.00
2022-08-22T17:50:21.319Z,4.80
2022-08-22T17:52:47.914Z,3.13
2022-08-22T17:55:14.487Z,3.10
2022-08-22T17:57:41.009Z,3.37
2022-08-22T18:00:07.529Z,2.73
2022-08-22T18:02:35.072Z,3.73
2022-08-22T18:05:01.575Z,3.23
2022-08-22T18:07:28.071Z,2.17
2022-08-22T18:09:54.599Z,3.07
2022-08-22T18:12:21.103Z,2.43
2022-08-22T18:14:47.601Z,2.10
2022-08-22T18:17:14.129Z,2.60
2022-08-22T18:19:40.727Z,2.43
2022-08-22T18:22:07.286Z,3.00
2022-08-22T18:24:33.869Z,2.70
2022-08-22T18:27:00.442Z,2.00
2022-08-22T18:29:26.933Z,2.07
2022-08-22T18:31:53.490Z,2.30
2022-08-22T18:34:19.985Z,2.57
2022-08-22T18:36:46.923Z,3.00
2022-08-22T18:39:14.390Z,2.33
2022-08-22T18:41:40.892Z,2.30
2022-08-22T18:44:08.157Z,2.40
2022-08-22T18:46:34.695Z,2.87
2022-08-22T18:49:15.054Z,4.00
2022-08-22T18:51:42.623Z,3.30
2022-08-22T18:54:09.118Z,3.30
2022-08-22T18:56:35.758Z,2.90
2022-08-22T18:59:06.180Z,7.00
2022-08-22T19:01:44.192Z,4.30
2022-08-22T19:04:11.302Z,5.80
2022-08-22T19:06:37.837Z,3.70
2022-08-22T19:09:04.397Z,3.60
2022-08-22T19:11:35.101Z,4.50
2022-08-22T19:14:03.500Z,3.20
2022-08-22T19:16:30.013Z,4.37
2022-08-22T19:18:56.600Z,3.90
2022-08-22T19:21:23.146Z,3.17
2022-08-22T19:23:49.740Z,2.20
2022-08-22T19:26:16.254Z,1.70
2022-08-22T19:28:42.853Z,1.70
2022-08-22T19:31:09.775Z,2.13
2022-08-22T19:33:37.939Z,2.10
2022-08-22T19:36:04.505Z,1.50
2022-08-22T19:38:31.053Z,2.90
2022-08-22T19:40:58.401Z,3.07
2022-08-22T19:43:25.220Z,1.70
2022-08-22T19:45:53.646Z,3.10
2022-08-22T19:48:20.210Z,1.90
2022-08-22T19:50:46.745Z,1.83
2022-08-22T19:53:13.318Z,1.53
2022-08-22T19:55:39.824Z,2.03
2022-08-22T19:58:06.406Z,1.80
2022-08-22T20:00:32.968Z,3.00
2022-08-22T20:02:59.703Z,1.90
2022-08-22T20:05:26.415Z,1.77
2022-08-22T20:07:52.974Z,2.43
2022-08-22T20:10:19.543Z,2.87
2022-08-22T20:12:46.073Z,3.53
2022-08-22T20:15:12.581Z,2.17
2022-08-22T20:17:39.094Z,1.60
2022-08-22T20:20:30.545Z,1.83
2022-08-22T20:22:58.208Z,1.50
2022-08-22T20:25:42.335Z,2.13
2022-08-22T20:28:10.494Z,1.60
2022-08-22T20:30:37.063Z,1.73
2022-08-22T20:33:03.593Z,1.80
2022-08-22T20:35:30.093Z,1.70
2022-08-22T20:38:06.769Z,1.83
2022-08-22T20:40:56.048Z,3.10
2022-08-22T20:43:20.153Z,1.90
2022-08-22T20:45:48.193Z,2.17
2022-08-22T20:48:15.374Z,2.10
2022-08-22T20:50:41.957Z,1.90
2022-08-22T20:53:09.654Z,2.07
2022-08-22T20:55:36.361Z,3.37
2022-08-22T20:58:02.917Z,1.80
2022-08-22T21:00:29.505Z,2.00
2022-08-22T21:02:56.005Z,1.97
2022-08-22T21:05:22.505Z,2.63
2022-08-22T21:07:49.073Z,2.17
2022-08-22T21:10:20.164Z,2.27
2022-08-22T21:12:48.716Z,2.10
2022-08-22T21:15:15.277Z,2.30
2022-08-22T21:17:41.875Z,2.17
2022-08-22T21:20:08.504Z,1.90
2022-08-22T21:22:35.058Z,2.07
2022-08-22T21:25:01.617Z,2.13
2022-08-22T21:27:28.417Z,2.50
2022-08-22T21:29:54.938Z,2.70
2022-08-22T21:32:21.497Z,2.70
2022-08-22T21:34:48.085Z,2.40
2022-08-22T21:37:14.597Z,2.70
2022-08-22T21:39:41.212Z,4.23
2022-08-22T21:42:07.888Z,2.83
2022-08-22T21:44:34.447Z,2.83
2022-08-22T21:47:00.949Z,3.23
2022-08-22T21:49:27.594Z,2.80
2022-08-22T21:51:54.146Z,2.90
2022-08-22T21:54:20.661Z,3.20
2022-08-22T21:56:47.182Z,3.00
2022-08-22T21:59:13.766Z,3.00
2022-08-22T22:01:42.658Z,3.50
2022-08-22T22:04:09.409Z,3.17
2022-08-22T22:06:35.945Z,3.40
2022-08-22T22:09:02.502Z,4.37
2022-08-22T22:11:29.060Z,3.30
2022-08-22T22:13:55.643Z,3.33
2022-08-22T22:16:22.151Z,5.93
2022-08-22T22:18:48.732Z,3.50
2022-08-22T22:21:15.329Z,3.50
2022-08-22T22:23:41.921Z,3.43
2022-08-22T22:26:08.494Z,3.40
2022-08-22T22:28:35.050Z,3.37
2022-08-22T22:31:01.618Z,3.07
2022-08-22T22:33:28.158Z,3.37
2022-08-22T22:35:54.675Z,3.63
2022-08-22T22:38:24.064Z,3.80
2022-08-22T22:40:51.009Z,4.17
2022-08-22T22:43:17.582Z,3.17
2022-08-22T22:45:44.150Z,4.50
2022-08-22T22:48:10.722Z,4.77
2022-08-22T22:50:39.966Z,3.93
2022-08-22T22:53:06.467Z,3.60
2022-08-22T22:55:36.104Z,3.47
2022-08-22T22:58:08.037Z,3.83
2022-08-22T23:00:36.977Z,5.77
2022-08-22T23:03:03.593Z,4.10
2022-08-22T23:05:30.140Z,4.33
2022-08-22T23:07:56.741Z,4.10
2022-08-22T23:10:23.278Z,4.50
2022-08-22T23:12:49.877Z,4.17
2022-08-22T23:15:16.403Z,4.33
2022-08-22T23:17:42.913Z,4.53
2022-08-22T23:20:09.592Z,5.23
2022-08-22T23:22:36.158Z,6.00
2022-08-22T23:25:02.722Z,5.07
2022-08-22T23:27:29.331Z,4.90
2022-08-22T23:29:55.906Z,4.97
2022-08-22T23:32:22.414Z,4.97
2022-08-22T23:34:51.170Z,5.23
2022-08-22T23:37:17.700Z,5.10
2022-08-22T23:39:44.277Z,4.80
2022-08-22T23:42:10.903Z,5.50
2022-08-22T23:44:37.415Z,5.07
2022-08-22T23:47:03.936Z,4.90
2022-08-22T23:49:30.539Z,4.73
2022-08-22T23:51:57.099Z,5.17
2022-08-22T23:54:23.633Z,4.70
2022-08-22T23:56:50.155Z,5.37
2022-08-22T23:59:16.688Z,6.17
